Time,TemperatureF,DewpointF,PressureIn,WindDirection,WindDirectionDegrees,WindSpeedMPH,WindSpeedGustMPH,Humidity,HourlyPrecipIn,Conditions,Clouds,dailyrainin,SoftwareType,DateUTC
2013-10-27 00:02:00,38.3,32.0,30.11,NNE,30,0.0,0.0,78,0.00,,,0.00,weatherlink.com 1.10,2013-10-27 05:02:00,
2013-10-27 00:17:00,37.5,32.0,30.11,NNE,30,0.0,0.0,79,0.00,,,0.00,weatherlink.com 1.10,2013-10-27 05:17:00,
2013-10-27 00:32:00,36.5,32.0,30.11,NNE,30,0.0,0.0,83,0.00,,,0.00,weatherlink.com 1.10,2013-10-27 05:32:00,
2013-10-27 00:47:00,35.5,31.0,30.11,NNE,30,0.0,0.0,85,0.00,,,0.00,weatherlink.com 1.10,2013-10-27 05:47:00,
2013-10-27 01:02:00,34.7,31.0,30.11,North,354,0.0,1.0,85,0.00,,,0.00,weatherlink.com 1.10,2013-10-27 06:02:00,
2013-10-27 01:17:00,33.5,30.0,30.11,North,354,0.0,0.0,86,0.00,,,0.00,weatherlink.com 1.10,2013-10-27 06:17:00,
2013-10-27 01:32:00,33.1,30.0,30.11,North,354,0.0,0.0,87,0.00,,,0.00,weatherlink.com 1.10,2013-10-27 06:32:00,
2013-10-27 01:47:00,31.6,29.0,30.11,North,354,0.0,0.0,88,0.00,,,0.00,weatherlink.com 1.10,2013-10-27 06:47:00,
2013-10-27 02:02:00,30.6,28.0,30.11,North,354,0.0,0.0,88,0.00,,,0.00,weatherlink.com 1.10,2013-10-27 07:02:00,
2013-10-27 02:17:00,30.4,28.0,30.10,NNE,32,0.0,1.0,90,0.00,,,0.00,weatherlink.com 1.10,2013-10-27 07:17:00,
2013-10-27 02:32:00,31.2,29.0,30.09,NNE,20,0.0,0.0,91,0.00,,,0.00,weatherlink.com 1.10,2013-10-27 07:32:00,
2013-10-27 02:47:00,30.9,29.0,30.09,NNE,20,0.0,0.0,91,0.00,,,0.00,weatherlink.com 1.10,2013-10-27 07:47:00,
2013-10-27 03:02:00,29.6,27.0,30.09,ESE,113,0.0,1.0,91,0.00,,,0.00,weatherlink.com 1.10,2013-10-27 08:02:00,
2013-10-27 03:17:00,29.6,28.0,30.09,ESE,113,0.0,0.0,92,0.00,,,0.00,weatherlink.com 1.10,2013-10-27 08:17:00,
2013-10-27 03:32:00,29.5,28.0,30.09,ESE,113,0.0,0.0,94,0.00,,,0.00,weatherlink.com 1.10,2013-10-27 08:32:00,
2013-10-27 03:47:00,29.7,28.0,30.09,ESE,113,0.0,0.0,94,0.00,,,0.00,weatherlink.com 1.10,2013-10-27 08:47:00,
2013-10-27 04:02:00,30.4,29.0,30.09,ESE,113,0.0,0.0,94,0.00,,,0.00,weatherlink.com 1.10,2013-10-27 09:02:00,
2013-10-27 04:17:00,29.3,28.0,30.08,ESE,113,0.0,0.0,93,0.00,,,0.00,weatherlink.com 1.10,2013-10-27 09:17:00,
2013-10-27 04:32:00,29.0,28.0,30.09,ESE,113,0.0,0.0,94,0.00,,,0.00,weatherlink.com 1.10,2013-10-27 09:32:00,
2013-10-27 04:47:00,29.5,29.0,30.09,ESE,113,0.0,0.0,96,0.00,,,0.00,weatherlink.com 1.10,2013-10-27 09:47:00,
2013-10-27 05:02:00,29.2,28.0,30.09,ESE,113,0.0,0.0,96,0.00,,,0.00,weatherlink.com 1.10,2013-10-27 10:02:00,
2013-10-27 05:17:00,29.2,28.0,30.09,ESE,113,0.0,0.0,96,0.00,,,0.00,weatherlink.com 1.10,2013-10-27 10:17:00,
2013-10-27 05:32:00,28.8,28.0,30.09,ESE,113,0.0,0.0,95,0.00,,,0.00,weatherlink.com 1.10,2013-10-27 10:32:00,
2013-10-27 05:48:00,28.7,28.0,30.10,ESE,113,0.0,0.0,95,0.00,,,0.00,weatherlink.com 1.10,2013-10-27 10:48:00,
2013-10-27 06:03:00,28.5,27.0,30.10,ESE,113,0.0,0.0,95,0.00,,,0.00,weatherlink.com 1.10,2013-10-27 11:03:00,
2013-10-27 06:18:00,28.2,27.0,30.10,ESE,113,0.0,0.0,95,0.00,,,0.00,weatherlink.com 1.10,2013-10-27 11:18:00,
2013-10-27 06:33:00,27.6,26.0,30.10,ESE,113,0.0,0.0,95,0.00,,,0.00,weatherlink.com 1.10,2013-10-27 11:33:00,
2013-10-27 06:48:00,28.2,28.0,30.10,ESE,113,0.0,0.0,97,0.00,,,0.00,weatherlink.com 1.10,2013-10-27 11:48:00,
2013-10-27 07:03:00,27.6,27.0,30.10,ESE,113,0.0,0.0,96,0.00,,,0.00,weatherlink.com 1.10,2013-10-27 12:03:00,
2013-10-27 07:18:00,28.0,27.0,30.10,ESE,113,0.0,0.0,96,0.00,,,0.00,weatherlink.com 1.10,2013-10-27 12:18:00,
2013-10-27 07:33:00,27.8,27.0,30.10,ESE,113,0.0,0.0,97,0.00,,,0.00,weatherlink.com 1.10,2013-10-27 12:33:00,
2013-10-27 07:48:00,28.5,28.0,30.10,ESE,113,0.0,0.0,96,0.00,,,0.00,weatherlink.com 1.10,2013-10-27 12:48:00,
2013-10-27 08:03:00,31.6,31.0,30.11,ESE,113,0.0,0.0,97,0.00,,,0.00,weatherlink.com 1.10,2013-10-27 13:03:00,
2013-10-27 08:18:00,36.0,35.0,30.11,ESE,113,0.0,0.0,97,0.00,,,0.00,weatherlink.com 1.10,2013-10-27 13:18:00,
2013-10-27 08:33:00,37.3,37.0,30.11,ESE,113,0.0,0.0,97,0.00,,,0.00,weatherlink.com 1.10,2013-10-27 13:33:00,
2013-10-27 08:48:00,41.1,41.0,30.11,ESE,113,0.0,0.0,98,0.00,,,0.00,weatherlink.com 1.10,2013-10-27 13:48:00,
2013-10-27 09:03:00,45.1,44.0,30.11,ESE,113,0.0,0.0,95,0.00,,,0.00,weatherlink.com 1.10,2013-10-27 14:03:00,
2013-10-27 09:18:00,46.7,43.0,30.12,ESE,113,0.0,1.0,88,0.00,,,0.00,weatherlink.com 1.10,2013-10-27 14:18:00,
2013-10-27 09:33:00,44.7,38.0,30.12,WSW,238,1.0,2.0,78,0.00,,,0.00,weatherlink.com 1.10,2013-10-27 14:33:00,
2013-10-27 09:48:00,46.0,40.0,30.12,West,262,0.0,1.0,78,0.00,,,0.00,weatherlink.com 1.10,2013-10-27 14:48:00,
2013-10-27 10:03:00,48.4,39.0,30.12,WSW,252,0.0,1.0,70,0.00,,,0.00,weatherlink.com 1.10,2013-10-27 15:03:00,
2013-10-27 10:18:00,51.3,38.0,30.12,SSW,208,2.0,2.0,61,0.00,,,0.00,weatherlink.com 1.10,2013-10-27 15:18:00,
2013-10-27 10:33:00,50.5,32.0,30.12,West,276,2.0,3.0,50,0.00,,,0.00,weatherlink.com 1.10,2013-10-27 15:33:00,
2013-10-27 10:48:00,49.8,31.0,30.12,West,266,4.0,5.0,49,0.00,,,0.00,weatherlink.com 1.10,2013-10-27 15:48:00,
2013-10-27 11:03:00,50.6,32.0,30.12,West,271,1.0,6.0,50,0.00,,,0.00,weatherlink.com 1.10,2013-10-27 16:03:00,
2013-10-27 11:19:00,52.1,33.0,30.12,WSW,257,2.0,4.0,49,0.00,,,0.00,weatherlink.com 1.10,2013-10-27 16:19:00,
2013-10-27 11:33:00,52.3,34.0,30.12,West,267,1.0,6.0,51,0.00,,,0.00,weatherlink.com 1.10,2013-10-27 16:33:00,
2013-10-27 11:48:00,52.8,34.0,30.12,South,179,2.0,7.0,49,0.00,,,0.00,weatherlink.com 1.10,2013-10-27 16:48:00,
2013-10-27 12:03:00,54.2,34.0,30.11,SSW,202,1.0,6.0,46,0.00,,,0.00,weatherlink.com 1.10,2013-10-27 17:03:00,
2013-10-27 12:18:00,54.9,33.0,30.11,SSE,156,3.0,6.0,43,0.00,,,0.00,weatherlink.com 1.10,2013-10-27 17:18:00,
2013-10-27 12:33:00,55.8,33.0,30.09,WSW,245,4.0,6.0,42,0.00,,,0.00,weatherlink.com 1.10,2013-10-27 17:33:00,
2013-10-27 12:48:00,55.4,32.0,30.09,WSW,257,0.0,7.0,42,0.00,,,0.00,weatherlink.com 1.10,2013-10-27 17:48:00,
2013-10-27 13:03:00,55.5,31.0,30.08,West,265,3.0,5.0,39,0.00,,,0.00,weatherlink.com 1.10,2013-10-27 18:03:00,
2013-10-27 13:18:00,56.4,33.0,30.07,South,176,1.0,5.0,41,0.00,,,0.00,weatherlink.com 1.10,2013-10-27 18:18:00,
2013-10-27 13:33:00,57.1,33.0,30.05,WSW,247,0.0,7.0,40,0.00,,,0.00,weatherlink.com 1.10,2013-10-27 18:33:00,
2013-10-27 13:48:00,57.5,33.0,30.04,WSW,255,2.0,5.0,39,0.00,,,0.00,weatherlink.com 1.10,2013-10-27 18:48:00,
2013-10-27 14:03:00,57.5,33.0,30.04,WSW,243,2.0,6.0,39,0.00,,,0.00,weatherlink.com 1.10,2013-10-27 19:03:00,
2013-10-27 14:18:00,57.7,32.0,30.03,NNW,348,0.0,7.0,38,0.00,,,0.00,weatherlink.com 1.10,2013-10-27 19:18:00,
2013-10-27 14:33:00,58.9,32.0,30.03,WSW,250,4.0,5.0,37,0.00,,,0.00,weatherlink.com 1.10,2013-10-27 19:33:00,
2013-10-27 14:48:00,59.0,33.0,30.03,WNW,290,3.0,7.0,37,0.00,,,0.00,weatherlink.com 1.10,2013-10-27 19:48:00,
2013-10-27 15:04:00,59.4,32.0,30.02,SE,146,1.0,4.0,35,0.00,,,0.00,weatherlink.com 1.10,2013-10-27 20:04:00,
2013-10-27 15:19:00,60.0,31.0,30.02,SSE,160,0.0,5.0,33,0.00,,,0.00,weatherlink.com 1.10,2013-10-27 20:19:00,
2013-10-27 15:34:00,60.4,32.0,30.01,WSW,251,0.0,4.0,35,0.00,,,0.00,weatherlink.com 1.10,2013-10-27 20:34:00,
2013-10-27 15:50:00,61.1,32.0,30.01,NW,305,3.0,6.0,33,0.00,,,0.00,weatherlink.com 1.10,2013-10-27 20:50:00,
2013-10-27 16:04:00,60.6,32.0,30.01,WNW,299,1.0,6.0,34,0.00,,,0.00,weatherlink.com 1.10,2013-10-27 21:04:00,
2013-10-27 16:19:00,61.3,32.0,30.01,SW,232,0.0,3.0,33,0.00,,,0.00,weatherlink.com 1.10,2013-10-27 21:19:00,
2013-10-27 16:34:00,60.7,31.0,30.01,SE,124,0.0,4.0,33,0.00,,,0.00,weatherlink.com 1.10,2013-10-27 21:34:00,
2013-10-27 16:49:00,60.4,32.0,30.01,SSW,211,2.0,4.0,34,0.00,,,0.00,weatherlink.com 1.10,2013-10-27 21:49:00,
2013-10-27 17:04:00,61.1,32.0,30.00,South,170,0.0,1.0,33,0.00,,,0.00,weatherlink.com 1.10,2013-10-27 22:04:00,
2013-10-27 17:19:00,60.1,31.0,30.00,SSW,195,0.0,2.0,34,0.00,,,0.00,weatherlink.com 1.10,2013-10-27 22:19:00,
2013-10-27 17:34:00,56.6,32.0,30.00,ESE,110,1.0,2.0,39,0.00,,,0.00,weatherlink.com 1.10,2013-10-27 22:34:00,
2013-10-27 17:49:00,54.1,31.0,30.00,ESE,108,0.0,1.0,42,0.00,,,0.00,weatherlink.com 1.10,2013-10-27 22:49:00,
2013-10-27 18:04:00,51.0,32.0,30.00,ESE,108,0.0,0.0,48,0.00,,,0.00,weatherlink.com 1.10,2013-10-27 23:04:00,
2013-10-27 18:19:00,47.9,31.0,30.00,ESE,109,0.0,0.0,52,0.00,,,0.00,weatherlink.com 1.10,2013-10-27 23:19:00,
2013-10-27 18:34:00,45.1,30.0,30.00,ESE,109,0.0,0.0,57,0.00,,,0.00,weatherlink.com 1.10,2013-10-27 23:34:00,
2013-10-27 18:49:00,43.1,30.0,30.00,ESE,108,0.0,0.0,60,0.00,,,0.00,weatherlink.com 1.10,2013-10-27 23:49:00,
2013-10-27 19:04:00,41.7,31.0,30.00,ESE,108,0.0,0.0,65,0.00,,,0.00,weatherlink.com 1.10,2013-10-28 00:04:00,
2013-10-27 19:19:00,40.9,31.0,30.01,ESE,109,0.0,0.0,67,0.00,,,0.00,weatherlink.com 1.10,2013-10-28 00:19:00,
2013-10-27 19:34:00,40.4,30.0,30.01,ESE,109,0.0,0.0,66,0.00,,,0.00,weatherlink.com 1.10,2013-10-28 00:34:00,
2013-10-27 19:49:00,39.6,30.0,30.01,ESE,108,0.0,0.0,68,0.00,,,0.00,weatherlink.com 1.10,2013-10-28 00:49:00,
2013-10-27 20:04:00,39.8,30.0,30.01,ESE,109,0.0,0.0,69,0.00,,,0.00,weatherlink.com 1.10,2013-10-28 01:04:00,
2013-10-27 20:19:00,39.7,30.0,30.01,ESE,108,0.0,0.0,69,0.00,,,0.00,weatherlink.com 1.10,2013-10-28 01:19:00,
2013-10-27 20:34:00,39.9,31.0,30.00,ESE,108,0.0,0.0,70,0.00,,,0.00,weatherlink.com 1.10,2013-10-28 01:34:00,
2013-10-27 20:49:00,39.7,30.0,30.01,ESE,109,0.0,0.0,69,0.00,,,0.00,weatherlink.com 1.10,2013-10-28 01:49:00,
2013-10-27 21:04:00,39.4,30.0,30.01,ESE,108,0.0,0.0,70,0.00,,,0.00,weatherlink.com 1.10,2013-10-28 02:04:00,
2013-10-27 21:19:00,39.6,31.0,30.02,ESE,109,0.0,0.0,72,0.00,,,0.00,weatherlink.com 1.10,2013-10-28 02:19:00,
2013-10-27 21:34:00,40.0,31.0,30.02,ESE,108,0.0,0.0,71,0.00,,,0.00,weatherlink.com 1.10,2013-10-28 02:34:00,
2013-10-27 21:49:00,40.1,32.0,30.03,ESE,108,0.0,0.0,72,0.00,,,0.00,weatherlink.com 1.10,2013-10-28 02:49:00,
2013-10-27 22:05:00,40.1,31.0,30.03,ESE,108,0.0,0.0,71,0.00,,,0.00,weatherlink.com 1.10,2013-10-28 03:05:00,
2013-10-27 22:20:00,39.4,31.0,30.03,ESE,109,0.0,0.0,73,0.00,,,0.00,weatherlink.com 1.10,2013-10-28 03:20:00,
2013-10-27 22:35:00,39.3,32.0,30.04,ESE,109,0.0,0.0,74,0.00,,,0.00,weatherlink.com 1.10,2013-10-28 03:35:00,
2013-10-27 22:50:00,39.1,32.0,30.04,ESE,108,0.0,0.0,76,0.00,,,0.00,weatherlink.com 1.10,2013-10-28 03:50:00,
2013-10-27 23:05:00,38.8,32.0,30.04,ESE,109,0.0,0.0,76,0.00,,,0.00,weatherlink.com 1.10,2013-10-28 04:05:00,
2013-10-27 23:20:00,40.1,33.0,30.04,ESE,107,0.0,1.0,76,0.00,,,0.00,weatherlink.com 1.10,2013-10-28 04:20:00,
2013-10-27 23:35:00,41.2,32.0,30.04,ESE,108,0.0,0.0,70,0.00,,,0.00,weatherlink.com 1.10,2013-10-28 04:35:00,
2013-10-27 23:50:00,39.1,31.0,30.04,ESE,108,0.0,0.0,74,0.00,,,0.00,weatherlink.com 1.10,2013-10-28 04:50:00,